Time;durP1;ratioP1;P1;durP2;ratioP2;P2;SDS_P1;SDS_P2;PMS_P1;PMS_P2;Temp;Humidity;BMP_temperature;BMP_pressure;BME280_temperature;BME280_humidity;BME280_pressure;Samples;Min_cycle;Max_cycle;Signal;HPM_P1;HPM_P2
2023/08/13 00:01:36;;;;;;;0.70;0.70;;;;;;;22.16;71.78;99766.66;5051190;28;20677;-67
2023/08/13 00:04:03;;;;;;;0.70;0.70;;;;;;;22.21;71.49;99761.94;5051207;28;20205;-66
2023/08/13 00:06:30;;;;;;;0.90;0.90;;;;;;;22.25;71.24;99763.38;5051247;28;20205;-67
2023/08/13 00:08:57;;;;;;;0.80;0.80;;;;;;;22.28;71.19;99752.72;5051148;28;20205;-67
2023/08/13 00:11:25;;;;;;;0.90;0.90;;;;;;;22.23;71.47;99758.25;5051185;28;20200;-67
2023/08/13 00:13:53;;;;;;;1.13;1.13;;;;;;;22.20;71.31;99755.03;5046407;28;20565;-67
2023/08/13 00:16:19;;;;;;;1.30;1.30;;;;;;;22.10;71.12;99751.44;5051293;28;20216;-67
2023/08/13 00:18:46;;;;;;;0.90;0.90;;;;;;;22.02;72.08;99751.13;5050917;28;20288;-67
2023/08/13 00:21:13;;;;;;;0.90;0.90;;;;;;;21.97;71.95;99751.50;5051325;28;20224;-67
2023/08/13 00:23:40;;;;;;;0.80;0.80;;;;;;;21.91;72.48;99749.28;5052404;28;20286;-67
2023/08/13 00:26:07;;;;;;;0.67;0.67;;;;;;;21.85;72.40;99750.53;5054824;28;20673;-67
2023/08/13 00:28:33;;;;;;;0.73;0.73;;;;;;;21.73;72.45;99740.13;5054667;28;20231;-67
2023/08/13 00:31:02;;;;;;;1.33;1.17;;;;;;;21.70;72.73;99746.41;5054635;28;20723;-66
2023/08/13 00:33:28;;;;;;;0.70;0.70;;;;;;;21.76;72.87;99755.56;5054714;28;20208;-67
2023/08/13 00:35:55;;;;;;;0.67;0.67;;;;;;;21.77;72.66;99750.25;5054453;28;20207;-66
2023/08/13 00:38:22;;;;;;;1.10;1.10;;;;;;;21.67;72.74;99745.78;5054610;28;20635;-66
2023/08/13 00:40:49;;;;;;;0.60;0.60;;;;;;;21.72;72.75;99754.94;5054537;28;20585;-66
2023/08/13 00:43:15;;;;;;;0.50;0.50;;;;;;;21.76;72.62;99745.13;5054292;28;20204;-66
2023/08/13 00:45:43;;;;;;;0.93;0.93;;;;;;;21.80;72.18;99747.41;5054388;28;20212;-66
2023/08/13 00:48:11;;;;;;;1.00;1.00;;;;;;;21.81;72.12;99749.06;5054098;28;20212;-67
2023/08/13 00:50:38;;;;;;;0.63;0.63;;;;;;;21.83;71.71;99756.81;5054435;28;20201;-67
2023/08/13 00:53:06;;;;;;;0.73;0.73;;;;;;;21.81;71.50;99756.91;5054212;28;20566;-67
2023/08/13 00:55:33;;;;;;;0.60;0.60;;;;;;;21.80;71.49;99757.03;5054223;28;20230;-66
2023/08/13 00:58:00;;;;;;;1.07;1.07;;;;;;;21.75;71.51;99757.34;5054236;28;20673;-66
2023/08/13 01:00:28;;;;;;;0.87;0.80;;;;;;;21.78;71.89;99751.06;5054522;28;20601;-67
2023/08/13 01:02:54;;;;;;;0.50;0.50;;;;;;;21.83;71.86;99749.81;5054206;28;20255;-67
2023/08/13 01:05:28;;;;;;;0.80;0.80;;;;;;;21.78;72.25;99738.84;5053753;28;20197;-66
2023/08/13 01:08:11;;;;;;;0.90;0.90;;;;;;;21.90;71.74;99758.91;5053879;28;20639;-67
2023/08/13 01:10:38;;;;;;;0.80;0.80;;;;;;;21.75;71.69;99720.81;5053986;28;20204;-67
2023/08/13 01:13:12;;;;;;;0.70;0.70;;;;;;;21.87;71.72;99737.38;5053927;28;20216;-67
2023/08/13 01:15:41;;;;;;;0.70;0.70;;;;;;;21.94;71.80;99757.72;5053947;28;20207;-67
2023/08/13 01:18:09;;;;;;;0.77;0.77;;;;;;;21.92;72.02;99756.19;5053658;28;20213;-67
2023/08/13 01:20:39;;;;;;;0.63;0.63;;;;;;;21.91;71.73;99754.50;5053923;28;20205;-67
2023/08/13 01:23:07;;;;;;;1.03;0.90;;;;;;;21.90;71.84;99755.47;5053724;28;20228;-66
2023/08/13 01:25:35;;;;;;;1.03;1.03;;;;;;;21.89;71.56;99762.47;5053630;28;20212;-66
2023/08/13 01:28:12;;;;;;;0.87;0.70;;;;;;;21.76;71.48;99745.13;5053354;28;20216;-66
2023/08/13 01:30:45;;;;;;;0.70;0.70;;;;;;;21.82;71.44;99763.78;5053817;28;20227;-67
2023/08/13 01:33:15;;;;;;;0.67;0.67;;;;;;;21.75;71.40;99767.78;5053569;28;20646;-67
2023/08/13 01:35:44;;;;;;;0.60;0.60;;;;;;;21.69;71.84;99760.38;5053255;28;20208;-66
2023/08/13 01:38:12;;;;;;;0.67;0.67;;;;;;;21.60;71.97;99766.25;5053454;28;20211;-66
2023/08/13 01:40:39;;;;;;;0.50;0.50;;;;;;;21.54;72.66;99769.28;5053325;28;20228;-67
2023/08/13 01:43:06;;;;;;;0.87;0.87;;;;;;;21.43;72.70;99774.41;5053375;28;20636;-67
2023/08/13 01:45:32;;;;;;;0.80;0.80;;;;;;;21.39;73.35;99765.09;5053184;28;20197;-66
2023/08/13 01:47:59;;;;;;;0.73;0.73;;;;;;;21.34;73.67;99764.59;5053346;28;20227;-66
2023/08/13 01:50:27;;;;;;;0.73;0.73;;;;;;;21.32;73.29;99772.53;5053152;28;20211;-66
2023/08/13 01:52:54;;;;;;;0.70;0.70;;;;;;;21.31;73.43;99776.09;5053279;28;20195;-66
2023/08/13 01:55:22;;;;;;;0.50;0.50;;;;;;;21.27;73.70;99771.16;5053201;28;20667;-66
2023/08/13 01:57:49;;;;;;;0.73;0.73;;;;;;;21.28;73.97;99770.25;5053115;28;20655;-66
2023/08/13 02:00:16;;;;;;;1.20;1.20;;;;;;;21.31;74.16;99770.03;5053044;28;20703;-66
2023/08/13 02:02:42;;;;;;;0.83;0.83;;;;;;;21.34;73.95;99769.81;5052912;28;20211;-67
2023/08/13 02:05:09;;;;;;;0.90;0.90;;;;;;;21.34;73.74;99769.81;5052852;28;20208;-66
2023/08/13 02:07:36;;;;;;;0.90;0.90;;;;;;;21.31;73.77;99775.25;5052714;28;20232;-66
2023/08/13 02:10:04;;;;;;;0.80;0.80;;;;;;;21.31;73.85;99775.25;5052999;28;20760;-66
2023/08/13 02:12:32;;;;;;;0.90;0.90;;;;;;;21.31;74.05;99775.25;5052884;28;20207;-67
2023/08/13 02:14:59;;;;;;;0.50;0.50;;;;;;;21.32;73.60;99771.69;5052759;28;20207;-66
2023/08/13 02:17:26;;;;;;;1.03;1.03;;;;;;;21.33;73.79;99779.41;5052923;28;20580;-66
2023/08/13 02:19:52;;;;;;;0.60;0.60;;;;;;;21.29;73.83;99766.69;5052481;28;20208;-66
2023/08/13 02:22:19;;;;;;;2.70;0.90;;;;;;;21.36;74.38;99773.13;5052586;28;20239;-66
2023/08/13 02:24:46;;;;;;;0.60;0.60;;;;;;;21.36;74.43;99780.97;5052899;28;20703;-66
2023/08/13 02:27:13;;;;;;;2.63;1.27;;;;;;;21.26;74.20;99782.56;5052518;28;20698;-67
2023/08/13 02:29:41;;;;;;;0.63;0.63;;;;;;;21.10;74.49;99774.91;5052408;28;20695;-66
2023/08/13 02:32:08;;;;;;;2.93;0.70;;;;;;;20.98;75.39;99777.47;5052521;28;20272;-67
2023/08/13 02:34:42;;;;;;;0.57;0.57;;;;;;;20.89;75.84;99782.38;5052647;28;20205;-67
2023/08/13 02:37:09;;;;;;;1.63;0.70;;;;;;;20.83;76.33;99784.56;5052355;28;20207;-66
2023/08/13 02:39:36;;;;;;;0.77;0.70;;;;;;;20.76;76.63;99783.28;5052249;28;20211;-67
2023/08/13 02:42:03;;;;;;;0.83;0.83;;;;;;;20.70;77.16;99784.53;5052153;28;20212;-66
2023/08/13 02:44:30;;;;;;;0.83;0.83;;;;;;;20.68;77.61;99781.16;5052262;28;20203;-66
2023/08/13 02:46:58;;;;;;;0.87;0.87;;;;;;;20.72;78.35;99780.03;5051351;28;20209;-66
2023/08/13 02:49:25;;;;;;;0.80;0.80;;;;;;;20.72;78.50;99787.84;5052025;28;20278;-66
2023/08/13 02:51:52;;;;;;;0.70;0.70;;;;;;;20.72;78.25;99782.66;5051946;28;20253;-66
2023/08/13 02:54:18;;;;;;;0.90;0.90;;;;;;;20.70;78.23;99779.31;5051880;28;20203;-66
2023/08/13 02:56:45;;;;;;;1.00;1.00;;;;;;;20.72;78.76;99792.22;5052074;28;20707;-66
2023/08/13 02:59:12;;;;;;;0.50;0.50;;;;;;;20.65;78.48;99775.31;5051883;28;20215;-67
2023/08/13 03:01:39;;;;;;;0.60;0.60;;;;;;;20.71;79.18;99786.19;5051877;28;20214;-66
2023/08/13 03:04:07;;;;;;;0.70;0.70;;;;;;;20.73;79.08;99779.13;5051876;28;20244;-67
2023/08/13 03:06:34;;;;;;;1.00;1.00;;;;;;;20.70;78.84;99779.31;5052164;28;20209;-66
2023/08/13 03:09:01;;;;;;;0.90;0.90;;;;;;;20.68;79.17;99778.56;5051626;28;20218;-66
2023/08/13 03:11:27;;;;;;;0.80;0.80;;;;;;;20.69;79.48;99782.84;5051812;28;20203;-67
2023/08/13 03:13:54;;;;;;;0.80;0.80;;;;;;;20.66;79.67;99783.06;5051944;28;20222;-67
2023/08/13 03:16:21;;;;;;;1.00;1.00;;;;;;;20.65;79.49;99783.97;5051687;28;20716;-66
2023/08/13 03:18:48;;;;;;;1.20;1.17;;;;;;;20.59;79.72;99775.72;5051768;28;20202;-66
2023/08/13 03:21:16;;;;;;;0.70;0.70;;;;;;;20.62;79.55;99789.38;5051643;28;20286;-66
2023/08/13 03:23:43;;;;;;;0.70;0.70;;;;;;;20.55;79.99;99780.31;5051451;28;20233;-67
2023/08/13 03:26:09;;;;;;;0.60;0.60;;;;;;;20.54;80.41;99786.47;5051607;28;20206;-67
2023/08/13 03:28:36;;;;;;;0.90;0.90;;;;;;;20.54;80.10;99789.06;5051657;28;20224;-67
2023/08/13 03:31:03;;;;;;;1.23;1.23;;;;;;;20.54;80.49;99777.81;5051558;28;20219;-66
2023/08/13 03:33:30;;;;;;;1.50;0.80;;;;;;;20.47;80.91;99772.16;5051423;28;20215;-66
2023/08/13 03:35:57;;;;;;;1.17;0.70;;;;;;;20.56;80.60;99787.19;5051630;28;20206;-66
2023/08/13 03:38:25;;;;;;;1.03;1.03;;;;;;;20.57;80.74;99788.88;5051423;28;20638;-66
2023/08/13 03:40:54;;;;;;;0.73;0.73;;;;;;;20.58;80.68;99794.91;5051486;28;20211;-67
2023/08/13 03:43:21;;;;;;;0.80;0.80;;;;;;;20.59;80.39;99792.19;5051412;28;20300;-66
2023/08/13 03:45:48;;;;;;;0.63;0.63;;;;;;;20.59;80.72;99792.19;5051580;28;20680;-66
2023/08/13 03:48:15;;;;;;;0.63;0.63;;;;;;;20.59;80.70;99787.00;5051332;28;20230;-66
2023/08/13 03:50:42;;;;;;;0.60;0.60;;;;;;;20.45;80.17;99768.00;5051353;28;20232;-66
2023/08/13 03:53:09;;;;;;;0.80;0.80;;;;;;;20.46;80.76;99785.28;5051529;28;20238;-67
2023/08/13 03:55:37;;;;;;;1.57;1.03;;;;;;;20.56;80.79;99792.41;5051237;28;20201;-66
2023/08/13 03:58:05;;;;;;;0.80;0.80;;;;;;;20.58;81.32;99794.91;5053554;28;20198;-66
2023/08/13 04:00:31;;;;;;;0.83;0.73;;;;;;;20.56;81.08;99802.81;5055269;28;20211;-66
2023/08/13 04:02:58;;;;;;;0.80;0.80;;;;;;;20.54;80.56;99799.50;5055284;28;20218;-67
2023/08/13 04:05:25;;;;;;;0.80;0.80;;;;;;;20.42;79.95;99784.63;5055166;28;20596;-66
2023/08/13 04:07:52;;;;;;;0.83;0.73;;;;;;;20.47;80.20;99798.22;5055186;28;20718;-66
2023/08/13 04:10:19;;;;;;;1.43;0.90;;;;;;;20.43;80.70;99797.56;5055051;28;20215;-67
2023/08/13 04:12:47;;;;;;;1.60;0.80;;;;;;;20.41;80.62;99802.06;5054983;28;20221;-67
2023/08/13 04:15:14;;;;;;;0.53;0.53;;;;;;;20.29;81.29;99794.19;5055168;28;20750;-66
2023/08/13 04:17:41;;;;;;;0.83;0.83;;;;;;;20.36;81.92;99808.47;5054909;28;20199;-66
2023/08/13 04:20:10;;;;;;;0.73;0.73;;;;;;;20.39;81.72;99797.84;5054963;28;20225;-66
2023/08/13 04:22:37;;;;;;;1.03;1.03;;;;;;;20.40;82.49;99802.13;5054686;28;20293;-67
2023/08/13 04:25:04;;;;;;;0.53;0.53;;;;;;;20.42;82.21;99797.66;5054939;28;20230;-66
2023/08/13 04:27:30;;;;;;;2.17;0.93;;;;;;;20.42;82.68;99802.84;5054793;28;20207;-67
2023/08/13 04:29:58;;;;;;;2.53;0.70;;;;;;;20.46;83.40;99801.72;5054644;28;20741;-66
2023/08/13 04:32:25;;;;;;;2.47;1.40;;;;;;;20.51;83.98;99804.91;5054577;28;20225;-66
2023/08/13 04:34:52;;;;;;;1.20;1.20;;;;;;;20.62;84.28;99815.44;5054548;28;20215;-66
2023/08/13 04:37:19;;;;;;;0.70;0.70;;;;;;;20.72;84.50;99813.91;5054686;28;20215;-66
2023/08/13 04:39:46;;;;;;;1.13;1.10;;;;;;;20.85;84.05;99814.78;5054514;28;20272;-66
2023/08/13 04:42:12;;;;;;;1.00;0.87;;;;;;;20.95;84.35;99799.38;5054553;28;20566;-67
2023/08/13 04:44:39;;;;;;;2.90;1.20;;;;;;;21.22;83.81;99817.59;5054528;28;20211;-66
2023/08/13 04:47:08;;;;;;;0.80;0.80;;;;;;;21.38;81.89;99810.41;5054546;28;20280;-67
2023/08/13 04:49:34;;;;;;;0.93;0.93;;;;;;;21.58;82.71;99820.31;5054389;28;20224;-66
2023/08/13 04:52:01;;;;;;;0.93;0.80;;;;;;;21.80;81.38;99815.28;5054182;28;20570;-67
2023/08/13 04:54:28;;;;;;;0.90;0.90;;;;;;;22.00;81.10;99819.16;5054360;28;20592;-66
2023/08/13 04:56:54;;;;;;;0.73;0.73;;;;;;;22.12;78.29;99820.88;5054170;28;20205;-67
2023/08/13 04:59:21;;;;;;;1.07;1.07;;;;;;;22.27;75.85;99811.09;5053478;28;20197;-68
2023/08/13 05:01:48;;;;;;;0.77;0.77;;;;;;;22.41;76.81;99816.19;5052742;28;20204;-68
2023/08/13 05:04:17;;;;;;;0.80;0.80;;;;;;;22.51;73.74;99822.41;5051164;28;20232;-68
2023/08/13 05:06:44;;;;;;;1.17;0.90;;;;;;;22.65;74.82;99824.84;5052847;28;20201;-68
2023/08/13 05:09:10;;;;;;;1.27;1.17;;;;;;;22.83;77.14;99823.53;5051101;28;20221;-68
2023/08/13 05:11:37;;;;;;;0.90;0.90;;;;;;;23.09;74.69;99824.22;5052016;28;20207;-68
2023/08/13 05:14:04;;;;;;;0.73;0.73;;;;;;;23.28;71.85;99826.28;5051961;28;20292;-68
2023/08/13 05:16:31;;;;;;;1.10;1.10;;;;;;;23.48;72.56;99836.09;5048903;28;20205;-68
2023/08/13 05:18:58;;;;;;;0.77;0.77;;;;;;;23.67;69.27;99836.34;5052188;28;20549;-67
2023/08/13 05:21:26;;;;;;;3.67;0.73;;;;;;;23.70;67.42;99836.13;5051842;28;20204;-68
2023/08/13 05:23:52;;;;;;;0.70;0.70;;;;;;;23.77;67.58;99837.31;5052246;28;20669;-68
2023/08/13 05:26:19;;;;;;;2.07;1.00;;;;;;;23.89;68.82;99838.97;5050994;28;20616;-68
2023/08/13 05:28:46;;;;;;;0.63;0.63;;;;;;;24.05;68.28;99834.19;5052224;28;20594;-68
2023/08/13 05:31:13;;;;;;;2.30;0.97;;;;;;;24.24;66.55;99840.63;5051596;28;20207;-67
2023/08/13 05:33:40;;;;;;;0.57;0.57;;;;;;;24.41;68.31;99837.50;5051487;28;20259;-68
2023/08/13 05:36:07;;;;;;;1.30;1.30;;;;;;;24.65;64.23;99830.28;5048958;28;20208;-68
2023/08/13 05:38:35;;;;;;;0.60;0.60;;;;;;;24.75;64.47;99831.19;5050932;28;20200;-67
2023/08/13 05:41:01;;;;;;;0.80;0.80;;;;;;;24.89;65.28;99833.53;5049437;28;20691;-67
2023/08/13 05:43:28;;;;;;;1.00;1.00;;;;;;;24.95;64.79;99817.28;5050132;28;20204;-67
2023/08/13 05:45:55;;;;;;;0.40;0.40;;;;;;;25.32;63.59;99838.69;5050287;28;20193;-65
2023/08/13 05:48:22;;;;;;;0.70;0.70;;;;;;;25.49;59.57;99835.47;5050408;28;20290;-66
2023/08/13 05:50:48;;;;;;;0.67;0.67;;;;;;;25.65;59.66;99827.16;5050199;28;21360;-68
2023/08/13 05:53:15;;;;;;;0.57;0.57;;;;;;;25.87;63.25;99826.13;5049881;28;20228;-66
2023/08/13 05:55:43;;;;;;;0.70;0.70;;;;;;;26.14;60.35;99833.41;5050220;28;20208;-66
2023/08/13 05:58:10;;;;;;;0.93;0.90;;;;;;;26.37;57.73;99829.59;5051851;28;20204;-66
2023/08/13 06:00:37;;;;;;;0.67;0.67;;;;;;;26.63;59.29;99825.47;5051091;28;20254;-64
2023/08/13 06:03:04;;;;;;;1.00;1.00;;;;;;;26.86;56.83;99826.91;5052378;28;20684;-65
2023/08/13 06:05:31;;;;;;;0.70;0.70;;;;;;;27.12;56.78;99828.00;5051265;28;20677;-66
2023/08/13 06:07:58;;;;;;;0.70;0.70;;;;;;;27.32;53.21;99822.69;5051809;28;20270;-63
2023/08/13 06:10:25;;;;;;;0.70;0.70;;;;;;;27.51;53.86;99830.56;5051472;28;20209;-65
2023/08/13 06:12:53;;;;;;;0.57;0.57;;;;;;;27.56;51.29;99828.34;5051610;28;20673;-65
2023/08/13 06:15:20;;;;;;;0.50;0.50;;;;;;;27.71;51.58;99842.69;5050142;28;20197;-63
2023/08/13 06:17:48;;;;;;;0.67;0.67;;;;;;;27.84;52.70;99839.72;5050973;28;20669;-66
2023/08/13 06:20:15;;;;;;;0.77;0.77;;;;;;;27.98;54.77;99841.91;5049149;28;20203;-66
2023/08/13 06:22:42;;;;;;;0.60;0.60;;;;;;;28.25;53.89;99834.00;5050398;28;20278;-65
2023/08/13 06:25:09;;;;;;;0.70;0.70;;;;;;;28.37;49.63;99846.00;5049314;28;20208;-64
2023/08/13 06:27:36;;;;;;;0.60;0.60;;;;;;;28.43;51.88;99841.94;5052115;28;20197;-63
2023/08/13 06:30:05;;;;;;;0.60;0.60;;;;;;;28.42;51.90;99843.75;5051330;28;20217;-65
2023/08/13 06:32:32;;;;;;;0.60;0.60;;;;;;;28.44;52.15;99846.22;5050200;28;20201;-65
2023/08/13 06:34:58;;;;;;;0.50;0.50;;;;;;;28.17;49.24;99830.44;5049407;28;20665;-65
2023/08/13 06:37:25;;;;;;;0.50;0.50;;;;;;;28.17;48.98;99851.53;5050234;28;20639;-65
2023/08/13 06:39:52;;;;;;;3.20;1.00;;;;;;;27.99;49.69;99846.16;5049876;28;20246;-65
2023/08/13 06:42:18;;;;;;;0.60;0.60;;;;;;;27.75;49.00;99841.44;5051965;28;20201;-68
2023/08/13 06:44:45;;;;;;;7.40;1.00;;;;;;;27.72;51.33;99835.63;5051852;28;20212;-68
2023/08/13 06:47:13;;;;;;;0.53;0.53;;;;;;;27.86;52.69;99841.25;5051652;28;20204;-65
2023/08/13 06:49:40;;;;;;;0.90;0.90;;;;;;;28.03;51.48;99843.13;5050175;28;20244;-75
2023/08/13 06:52:07;;;;;;;0.60;0.60;;;;;;;28.19;48.44;99844.31;5049750;28;20197;-65
2023/08/13 06:54:34;;;;;;;0.60;0.60;;;;;;;28.40;48.97;99836.97;5049546;28;20659;-65
2023/08/13 06:57:01;;;;;;;0.60;0.60;;;;;;;28.61;48.43;99829.59;5049397;28;20694;-66
2023/08/13 06:59:28;;;;;;;0.60;0.60;;;;;;;28.79;51.70;99827.78;5049279;28;20201;-65
2023/08/13 07:01:55;;;;;;;0.50;0.50;;;;;;;29.05;47.87;99823.38;5049736;28;20626;-66
2023/08/13 07:04:23;;;;;;;0.60;0.60;;;;;;;29.09;45.29;99811.53;5048859;28;20214;-65
2023/08/13 07:06:50;;;;;;;0.70;0.70;;;;;;;29.20;45.34;99828.97;5049944;28;20197;-65
2023/08/13 07:09:17;;;;;;;0.60;0.60;;;;;;;29.28;47.67;99828.19;5049032;28;20213;-65
2023/08/13 07:11:43;;;;;;;0.65;0.60;;;;;;;29.36;46.78;99830.91;5050472;28;20199;-65
2023/08/13 07:14:10;;;;;;;0.65;0.65;;;;;;;29.26;44.69;99827.53;5047776;28;20200;-65
2023/08/13 07:16:37;;;;;;;0.70;0.45;;;;;;;29.02;44.87;99818.41;5048630;28;20200;-65
2023/08/13 07:19:04;;;;;;;0.70;0.70;;;;;;;29.07;46.89;99826.72;5049096;28;20207;-65
2023/08/13 07:21:32;;;;;;;0.70;0.70;;;;;;;29.20;45.48;99821.03;5047461;28;20209;-64
2023/08/13 07:23:59;;;;;;;0.50;0.50;;;;;;;29.45;46.36;99829.97;5049380;28;20262;-65
2023/08/13 07:26:26;;;;;;;0.45;0.45;;;;;;;29.51;44.57;99821.41;5047929;28;20200;-65
2023/08/13 07:28:52;;;;;;;0.60;0.60;;;;;;;29.68;44.01;99825.81;5049877;28;20262;-65
2023/08/13 07:31:19;;;;;;;0.57;0.52;;;;;;;29.90;47.18;99813.88;5048374;28;20196;-65
2023/08/13 07:33:46;;;;;;;0.52;0.52;;;;;;;30.09;42.23;99819.72;5049199;28;20279;-65
2023/08/13 07:36:13;;;;;;;0.98;0.65;;;;;;;30.35;42.11;99818.78;5048941;28;20664;-66
2023/08/13 07:38:42;;;;;;;0.68;0.68;;;;;;;30.47;41.17;99813.06;5049174;28;20262;-65
2023/08/13 07:41:08;;;;;;;0.60;0.60;;;;;;;30.40;40.42;99819.19;5049775;28;20569;-65
2023/08/13 07:43:35;;;;;;;0.77;0.77;;;;;;;30.46;41.51;99815.88;5048728;28;20577;-65
2023/08/13 07:46:02;;;;;;;0.80;0.80;;;;;;;30.44;41.12;99815.19;5050173;28;20450;-64
2023/08/13 07:48:29;;;;;;;0.70;0.70;;;;;;;30.75;42.13;99810.94;5051289;28;20258;-64
2023/08/13 07:50:55;;;;;;;0.88;0.40;;;;;;;30.95;41.78;99816.75;5051156;28;20219;-64
2023/08/13 07:53:22;;;;;;;0.60;0.55;;;;;;;31.12;39.13;99823.69;5051173;28;20204;-64
2023/08/13 07:55:50;;;;;;;0.60;0.60;;;;;;;31.19;38.70;99814.94;5051148;28;20665;-64
2023/08/13 07:58:18;;;;;;;0.45;0.45;;;;;;;31.24;38.45;99794.03;5051351;28;20224;-64
2023/08/13 08:00:44;;;;;;;0.70;0.70;;;;;;;31.58;39.67;99814.19;5049339;28;20193;-63
2023/08/13 08:03:11;;;;;;;0.60;0.60;;;;;;;31.16;38.12;99809.97;5050665;28;20197;-63
2023/08/13 08:05:38;;;;;;;0.90;0.60;;;;;;;31.20;38.92;99807.81;5050310;28;20200;-64
2023/08/13 08:08:05;;;;;;;0.70;0.70;;;;;;;31.20;37.56;99806.00;5050894;28;20696;-63
2023/08/13 08:10:32;;;;;;;0.80;0.52;;;;;;;31.32;37.67;99803.81;5050840;28;20627;-63
2023/08/13 08:13:00;;;;;;;0.65;0.65;;;;;;;31.59;35.87;99805.25;5051036;28;20267;-65
2023/08/13 08:15:27;;;;;;;1.48;0.70;;;;;;;31.69;36.73;99800.59;5050976;28;20196;-64
2023/08/13 08:17:54;;;;;;;0.80;0.80;;;;;;;31.81;38.30;99796.56;5050642;28;20259;-64
2023/08/13 08:20:22;;;;;;;0.60;0.60;;;;;;;31.80;37.29;99792.25;5051020;28;20220;-64
2023/08/13 08:22:48;;;;;;;0.60;0.60;;;;;;;32.00;38.05;99793.47;5050648;28;20231;-64
2023/08/13 08:25:15;;;;;;;0.65;0.65;;;;;;;32.14;36.42;99790.13;5050517;28;20201;-64
2023/08/13 08:27:42;;;;;;;0.50;0.50;;;;;;;32.25;36.37;99792.38;5050548;28;20204;-64
2023/08/13 08:30:11;;;;;;;0.50;0.50;;;;;;;31.93;35.29;99771.28;5050630;28;20217;-65
2023/08/13 08:32:38;;;;;;;0.68;0.68;;;;;;;32.05;35.98;99787.69;5050488;28;20205;-64
2023/08/13 08:35:06;;;;;;;0.50;0.50;;;;;;;31.98;36.58;99787.53;5050436;28;20200;-63
2023/08/13 08:37:33;;;;;;;0.63;0.63;;;;;;;32.07;34.98;99778.56;5050488;28;20207;-64
2023/08/13 08:40:00;;;;;;;0.63;0.60;;;;;;;32.09;35.97;99783.66;5050496;28;20193;-63
2023/08/13 08:42:27;;;;;;;0.98;0.50;;;;;;;32.07;35.53;99783.88;5050805;28;20581;-65
2023/08/13 08:44:55;;;;;;;0.50;0.50;;;;;;;31.80;35.20;99791.41;5052198;28;20243;-64
2023/08/13 08:47:24;;;;;;;0.50;0.50;;;;;;;31.59;34.67;99789.34;5054071;28;20201;-65
2023/08/13 08:49:52;;;;;;;0.47;0.47;;;;;;;31.47;35.22;99788.03;5053936;28;20282;-64
2023/08/13 08:52:20;;;;;;;0.70;0.70;;;;;;;31.39;36.07;99772.16;5054308;28;20240;-64
2023/08/13 08:54:48;;;;;;;0.43;0.43;;;;;;;31.30;35.38;99776.66;5054219;28;20220;-63
2023/08/13 08:57:15;;;;;;;0.40;0.40;;;;;;;31.57;37.96;99776.25;5054181;28;20223;-63
2023/08/13 08:59:42;;;;;;;0.55;0.55;;;;;;;31.43;35.05;99773.47;5053532;28;20197;-64
2023/08/13 09:02:12;;;;;;;0.40;0.40;;;;;;;31.50;35.91;99775.31;5053413;28;20281;-64
2023/08/13 09:04:40;;;;;;;0.50;0.50;;;;;;;31.73;36.03;99775.38;5053595;28;20232;-64
2023/08/13 09:07:07;;;;;;;0.50;0.50;;;;;;;31.84;37.53;99772.34;5051939;28;20246;-64
2023/08/13 09:09:34;;;;;;;0.60;0.60;;;;;;;32.01;36.75;99763.31;5053589;28;20274;-65
2023/08/13 09:12:00;;;;;;;0.60;0.60;;;;;;;32.04;35.47;99757.69;5053243;28;20196;-65
2023/08/13 09:14:27;;;;;;;0.95;0.60;;;;;;;32.19;35.28;99761.22;5053418;28;20197;-64
2023/08/13 09:16:57;;;;;;;0.45;0.45;;;;;;;32.38;34.06;99756.44;5053310;28;20224;-64
2023/08/13 09:19:25;;;;;;;3.50;0.40;;;;;;;31.96;34.07;99757.69;5053419;28;20254;-64
2023/08/13 09:21:56;;;;;;;0.40;0.40;;;;;;;31.92;36.22;99752.91;5050728;28;20220;-65
2023/08/13 09:24:32;;;;;;;1.08;0.77;;;;;;;31.97;35.02;99746.09;5046787;28;20211;-64
2023/08/13 09:26:59;;;;;;;0.40;0.40;;;;;;;32.01;35.60;99747.41;5049836;28;20278;-64
2023/08/13 09:29:29;;;;;;;0.60;0.60;;;;;;;31.72;35.06;99741.91;5053127;28;20204;-64
2023/08/13 09:31:56;;;;;;;0.47;0.47;;;;;;;31.29;34.88;99745.03;5052948;28;20240;-64
2023/08/13 09:34:23;;;;;;;0.70;0.70;;;;;;;30.98;34.49;99737.84;5052768;28;20250;-63
2023/08/13 09:36:54;;;;;;;0.63;0.50;;;;;;;30.67;34.82;99723.59;5052194;28;20201;-64
2023/08/13 09:39:21;;;;;;;0.45;0.40;;;;;;;30.68;37.30;99741.97;5052210;28;20235;-64
2023/08/13 09:41:50;;;;;;;0.40;0.40;;;;;;;30.75;39.79;99744.78;5053409;28;20673;-64
2023/08/13 09:44:19;;;;;;;0.80;0.80;;;;;;;30.47;40.09;99715.16;5052723;28;20665;-64
2023/08/13 09:46:49;;;;;;;0.80;0.80;;;;;;;30.56;40.80;99731.88;5053121;28;20299;-63
2023/08/13 09:49:16;;;;;;;0.70;0.70;;;;;;;30.60;40.69;99735.81;5053018;28;20281;-64
2023/08/13 09:51:46;;;;;;;2.75;0.60;;;;;;;30.66;39.83;99737.84;5052884;28;20446;-72
2023/08/13 09:54:23;;;;;;;0.50;0.50;;;;;;;30.46;40.97;99747.09;5050156;28;20435;-66
2023/08/13 09:56:56;;;;;;;0.45;0.40;;;;;;;30.23;40.49;99735.47;5049524;28;20200;-66
2023/08/13 09:59:23;;;;;;;0.60;0.60;;;;;;;30.44;39.91;99741.13;5050166;28;20208;-66
2023/08/13 10:01:50;;;;;;;0.95;0.77;;;;;;;30.21;39.46;99731.16;5048637;28;20200;-66
2023/08/13 10:04:18;;;;;;;0.60;0.60;;;;;;;29.77;39.89;99711.19;5047518;28;20212;-66
2023/08/13 10:06:46;;;;;;;0.47;0.47;;;;;;;30.14;39.71;99727.53;5046199;28;20216;-66
2023/08/13 10:09:15;;;;;;;0.70;0.70;;;;;;;30.17;39.65;99737.78;5047737;28;20205;-66
2023/08/13 10:11:41;;;;;;;0.88;0.88;;;;;;;30.05;40.05;99744.34;5048256;28;20227;-66
2023/08/13 10:14:08;;;;;;;0.50;0.50;;;;;;;30.04;41.48;99736.59;5048390;28;20299;-66
2023/08/13 10:16:35;;;;;;;0.50;0.50;;;;;;;29.76;39.43;99738.59;5047704;28;20255;-66
2023/08/13 10:19:02;;;;;;;0.52;0.52;;;;;;;29.28;41.18;99743.69;5047681;28;20197;-66
2023/08/13 10:21:35;;;;;;;0.55;0.55;;;;;;;29.10;42.09;99741.94;5047839;28;20225;-66
2023/08/13 10:24:04;;;;;;;0.60;0.60;;;;;;;29.25;40.81;99733.44;5048080;28;20681;-66
2023/08/13 10:26:32;;;;;;;0.97;0.50;;;;;;;29.15;41.69;99723.78;5047653;28;20588;-66
2023/08/13 10:28:59;;;;;;;0.80;0.80;;;;;;;29.27;43.33;99724.41;5048575;28;21517;-67
2023/08/13 10:31:30;;;;;;;0.57;0.57;;;;;;;29.36;41.07;99731.38;5047655;28;20676;-66
2023/08/13 10:34:08;;;;;;;0.50;0.50;;;;;;;29.31;42.31;99725.72;5040438;28;20205;-66
2023/08/13 10:36:47;;;;;;;0.63;0.63;;;;;;;29.30;41.25;99725.88;5042615;28;20662;-66
2023/08/13 10:39:34;;;;;;;0.80;0.80;;;;;;;29.04;41.45;99726.72;5045284;28;20223;-66
2023/08/13 10:42:03;;;;;;;0.47;0.47;;;;;;;29.11;42.27;99717.16;5043013;28;20204;-66
2023/08/13 10:44:31;;;;;;;0.77;0.77;;;;;;;29.25;42.65;99717.59;5044169;28;20577;-66
2023/08/13 10:46:58;;;;;;;0.80;0.80;;;;;;;29.28;43.52;99712.00;5040722;28;20208;-66
2023/08/13 10:49:27;;;;;;;4.30;0.80;;;;;;;29.13;44.95;99717.84;5044160;28;20211;-66
2023/08/13 10:51:54;;;;;;;0.50;0.50;;;;;;;29.16;44.81;99708.78;5046866;28;20307;-66
2023/08/13 10:54:25;;;;;;;0.60;0.60;;;;;;;29.18;44.41;99705.00;5047728;28;20212;-66
2023/08/13 10:56:59;;;;;;;1.00;1.00;;;;;;;29.32;43.01;99705.41;5047068;28;20295;-66
2023/08/13 10:59:31;;;;;;;0.70;0.70;;;;;;;29.53;43.28;99701.38;5048298;28;20655;-66
2023/08/13 11:02:21;;;;;;;0.70;0.70;;;;;;;29.45;41.74;99704.00;5047025;28;20189;-67
2023/08/13 11:04:48;;;;;;;1.90;0.60;;;;;;;29.49;42.05;99694.78;5041411;28;20215;-66
2023/08/13 11:07:15;;;;;;;1.67;1.27;;;;;;;29.70;41.93;99692.53;5045636;28;20208;-66
2023/08/13 11:09:44;;;;;;;0.77;0.43;;;;;;;29.60;41.29;99696.28;5047325;28;20683;-67
2023/08/13 11:12:11;;;;;;;0.63;0.63;;;;;;;29.86;44.88;99688.28;5047933;28;20213;-66
2023/08/13 11:14:41;;;;;;;0.43;0.43;;;;;;;30.18;43.07;99686.50;5045922;28;20212;-66
2023/08/13 11:17:08;;;;;;;0.95;0.60;;;;;;;30.13;40.43;99677.44;5049121;28;20211;-66
2023/08/13 11:19:35;;;;;;;0.50;0.50;;;;;;;30.08;41.52;99680.56;5047169;28;20208;-66
2023/08/13 11:22:03;;;;;;;1.27;0.70;;;;;;;30.07;41.53;99678.91;5049306;28;20228;-66
2023/08/13 11:24:32;;;;;;;0.68;0.68;;;;;;;30.23;41.43;99667.53;5047632;28;20205;-66
2023/08/13 11:26:59;;;;;;;0.95;0.90;;;;;;;30.50;42.33;99664.53;5048929;28;20225;-67
2023/08/13 11:29:26;;;;;;;0.88;0.60;;;;;;;30.92;40.24;99666.94;5047888;28;20253;-66
2023/08/13 11:31:54;;;;;;;1.13;0.60;;;;;;;31.00;42.18;99642.31;5049605;28;20213;-67
2023/08/13 11:34:21;;;;;;;0.50;0.50;;;;;;;31.22;37.36;99660.09;5048124;28;20217;-66
2023/08/13 11:36:50;;;;;;;0.70;0.63;;;;;;;31.06;38.06;99653.06;5047590;28;20205;-66